NFNA

Nausori International Airport

Nausori, Fiji
METAR NFNA 130100Z 12009KT 9999 BKN022 SCT048 28/22 Q1009
Observed Flight Rules
Dec-13 @ 01:00 UTC (39 minutes ago) Marginal Visual Flight Rules
Wind Visibility Clouds
120° at 9 knots 10,000+ meters
  • Broken at 2,200' AGL
  • Scattered at 4,800' AGL
Temperatures Readings
Current 28°C / 82°F
Dewpoint 22°C / 72°F
Humidity 70%
Altimeter 29.79" Hg
Pressure 1009 hPa
Elevation 5
METAR NFNA 130100Z 12009KT 9999 BKN022 SCT048 28/22 Q1009
Observed Flight Rules
Dec-13 @ 01:00 UTC
(39 minutes ago)
MVFR
Wind Visibility
120° at 9 knots 10,000+ meters
Clouds
  • Broken at 2,200' AGL
  • Scattered at 4,800' AGL
Temperature Dewpoint
28°C / 82°F 22°C / 72°F
Humidity Altimeter Pressure
70% 29.79" Hg 1009 hPa